Aérodrome :
LOGIN :

S'inscrire | Disclaimer

   EN    FR    IT 

 










Légende :    VFR   VFR Marginal   IFR   IFR Intensif   IFR Très Intensif
Visi : 
Plafond : 
>= 8 km
>= 3000ft
5 à 8 km
1000 à 3000 ft
1500m à 5 km
500 à 1000 ft
800 à 1500m
200 à 500 ft
< 800m
< 200 ft
Symboles :   Orages  Brouillard  Fortes neiges  Fortes précipitations  Vent > 20 kt
SIGMETs :   Divers  Orages  Givrage  Turbulence  Onde Orograph.  Cendres Volcan.






- Altitude de l'aérodrome : 963 ft
- Code IATA : TGM


LRTM - Transilvania Târgu Mureş Int.

DERNIER METAR :
  • 191530Z 03003KT 320V040 2800 BR SCT006 BKN009 OVC025 M03/M04 Q1030 R07/19//95

METARs EXPIRÉS :
  • 191500Z 34002KT 2800 BR SCT007 OVC011 M03/M04 Q1030 R07/19//95
  • 191430Z VRB01KT 3500 BR SCT007 BKN009 OVC012 M03/M04 Q1030 R07/19//95
  • 191400Z 02002KT 3500 BR SCT006 OVC011 M03/M04 Q1030 R07/19//95
  • 191330Z 04003KT 320V110 3000 BR SCT005 OVC011 M03/M04 Q1029 R07/19//95
  • 191300Z 06004KT 020V090 2800 BR SCT005 OVC010 M03/M04 Q1029 R07/19//95

TAF TAF LRTM
Valide du 19 à 15h jusqu'au 20 à 00h UTC


191400Z 1915/1924 VRB04KT 5000 BR SCT005 OVC010



MET'MAP, la Météo Aéronautique d'un coup d'oeil ! - Copyright ORBIFLY Décembre 2007 - Disclaimer

ORBIFLY MET'MAP TEAM :

Programmation & Développement : Alexandra Zaïnal
Sur une idée originale de : Baudouin d'Aumeries
Assistance à la programmation : Marc-Olivier Méhu
Soutien technique & logistique : Manuel Goepfert

Contact : metmap@orbifly.com




SOURCES & CREDITS :

   NOAA